Time;durP1;ratioP1;P1;durP2;ratioP2;P2;SDS_P1;SDS_P2;PMS_P1;PMS_P2;Temp;Humidity;BMP_temperature;BMP_pressure;BME280_temperature;BME280_humidity;BME280_pressure;Samples;Min_cycle;Max_cycle;Signal;HPM_P1;HPM_P2
2022/08/05 00:00:35;;;;;;;3.42;2.88;;;;;;;22.08;41.48;93999.00;5069463;28;20028;-75
2022/08/05 00:03:00;;;;;;;2.92;1.98;;;;;;;22.21;41.56;94018.38;5067307;28;20024;-75
2022/08/05 00:05:26;;;;;;;3.53;2.35;;;;;;;22.21;41.70;94018.38;5070528;28;20035;-75
2022/08/05 00:07:51;;;;;;;2.80;2.47;;;;;;;22.21;41.60;94018.38;5065546;28;20032;-75
2022/08/05 00:10:17;;;;;;;1.90;1.80;;;;;;;22.17;41.55;94012.97;5068031;28;20032;-74
2022/08/05 00:12:42;;;;;;;2.78;2.53;;;;;;;22.11;41.86;94014.50;5068386;28;20028;-76
2022/08/05 00:15:08;;;;;;;3.50;2.55;;;;;;;22.01;42.14;94007.09;5071550;28;20024;-75
2022/08/05 00:17:34;;;;;;;5.68;2.45;;;;;;;22.05;41.97;94018.72;5066633;28;20432;-75
2022/08/05 00:19:59;;;;;;;3.13;2.60;;;;;;;22.01;41.88;94015.22;5068312;28;20032;-75
2022/08/05 00:22:24;;;;;;;3.03;2.47;;;;;;;21.88;42.04;94000.47;5068623;28;20052;-75
2022/08/05 00:24:50;;;;;;;2.60;2.40;;;;;;;21.95;42.36;94016.72;5067329;28;20400;-75
2022/08/05 00:27:15;;;;;;;2.65;2.35;;;;;;;21.91;42.07;94007.81;5081973;28;20028;-76
2022/08/05 00:29:41;;;;;;;2.58;2.38;;;;;;;21.81;42.25;94006.63;5047345;28;20025;-76
2022/08/05 00:32:09;;;;;;;2.40;1.95;;;;;;;21.85;42.39;94003.94;5053652;28;20032;-75
2022/08/05 00:34:35;;;;;;;3.28;2.95;;;;;;;21.71;42.78;93984.91;5066887;28;20103;-75
2022/08/05 00:37:00;;;;;;;3.40;2.30;;;;;;;21.75;42.56;93989.19;5067877;28;20115;-76
2022/08/05 00:39:26;;;;;;;3.05;2.60;;;;;;;21.79;42.61;94003.53;5064967;28;20023;-75
2022/08/05 00:41:51;;;;;;;2.85;2.53;;;;;;;21.75;42.56;93989.19;5052948;28;20411;-75
2022/08/05 00:44:17;;;;;;;2.70;2.25;;;;;;;21.68;42.49;93982.97;5068067;28;20086;-75
2022/08/05 00:46:42;;;;;;;2.55;2.20;;;;;;;21.73;42.54;93988.78;5066064;28;20070;-76
2022/08/05 00:49:07;;;;;;;2.55;2.35;;;;;;;21.66;42.48;93987.97;5068838;28;20020;-76
2022/08/05 00:51:33;;;;;;;2.75;2.53;;;;;;;21.76;42.45;94003.47;5067403;28;20052;-76
2022/08/05 00:53:58;;;;;;;2.80;2.30;;;;;;;21.74;42.40;93997.69;5067242;28;20021;-75
2022/08/05 00:56:24;;;;;;;4.85;2.58;;;;;;;21.55;42.35;93963.56;5069308;28;20024;-75
2022/08/05 00:58:49;;;;;;;3.38;2.67;;;;;;;21.63;42.61;93975.19;5046603;28;20043;-76
2022/08/05 01:01:14;;;;;;;5.13;3.05;;;;;;;21.45;42.51;93958.84;5066221;28;20048;-76
2022/08/05 01:03:42;;;;;;;3.05;2.17;;;;;;;21.64;42.59;94001.13;5067299;28;20382;-76
2022/08/05 01:06:09;;;;;;;3.13;2.67;;;;;;;21.34;42.82;93966.13;5068008;28;20036;-75
2022/08/05 01:08:34;;;;;;;3.60;2.83;;;;;;;21.42;42.70;93979.31;5082795;28;20020;-74
2022/08/05 01:11:05;;;;;;;4.05;2.47;;;;;;;21.35;43.25;93990.09;5068807;28;20386;-76
2022/08/05 01:13:47;;;;;;;3.63;3.33;;;;;;;21.35;43.16;93992.81;5070688;28;20547;-76
2022/08/05 01:16:20;;;;;;;3.60;2.95;;;;;;;21.37;43.13;94004.00;5052227;28;20029;-75
2022/08/05 01:18:50;;;;;;;4.97;3.80;;;;;;;21.30;43.82;93997.78;5066886;28;20027;-75
2022/08/05 01:21:42;;;;;;;5.20;3.10;;;;;;;21.36;43.98;94007.09;5080176;28;20021;-76
2022/08/05 01:24:35;;;;;;;4.85;3.10;;;;;;;21.34;43.85;93999.38;5061709;28;20063;-76
2022/08/05 01:27:22;;;;;;;3.33;2.50;;;;;;;21.35;43.29;93998.22;5067593;28;20495;-75
2022/08/05 01:29:51;;;;;;;3.50;3.03;;;;;;;21.34;43.39;93999.38;5066611;28;20053;-75
2022/08/05 01:32:21;;;;;;;3.22;2.92;;;;;;;21.13;43.42;93977.56;5066018;28;20012;-76
2022/08/05 01:34:53;;;;;;;2.70;2.50;;;;;;;21.22;43.52;93994.25;5064926;28;20031;-76
2022/08/05 01:37:27;;;;;;;3.42;2.72;;;;;;;21.24;43.76;94008.19;5051126;28;20112;-75
2022/08/05 01:39:54;;;;;;;3.10;2.80;;;;;;;21.04;43.45;93979.81;5063478;28;20056;-76
2022/08/05 01:42:24;;;;;;;2.60;2.40;;;;;;;21.10;43.62;93991.84;5063727;28;20269;-76
2022/08/05 01:44:50;;;;;;;3.60;2.30;;;;;;;20.97;43.70;93979.78;5040169;28;20021;-75
2022/08/05 01:47:18;;;;;;;2.90;2.60;;;;;;;21.05;43.83;94000.31;5050506;28;20036;-76
2022/08/05 01:49:46;;;;;;;2.83;2.55;;;;;;;20.92;44.02;93983.56;5066714;28;20024;-76
2022/08/05 01:52:13;;;;;;;4.18;3.30;;;;;;;20.96;44.01;93989.03;5066910;28;20025;-75
2022/08/05 01:54:43;;;;;;;2.65;2.40;;;;;;;21.02;44.20;94014.59;5068220;28;20028;-76
2022/08/05 01:57:11;;;;;;;3.28;2.67;;;;;;;20.96;44.69;94013.38;5044571;28;20104;-75
2022/08/05 01:59:39;;;;;;;3.10;2.70;;;;;;;20.92;44.26;94015.28;5066346;28;20073;-76
2022/08/05 02:02:06;;;;;;;3.17;2.88;;;;;;;20.90;44.24;94012.16;5051140;28;20025;-76
2022/08/05 02:04:35;;;;;;;5.55;3.08;;;;;;;20.80;44.39;94008.19;5065146;28;20056;-76
2022/08/05 02:07:01;;;;;;;4.25;2.72;;;;;;;20.79;44.66;93995.81;5065904;28;20070;-75
2022/08/05 02:09:27;;;;;;;3.08;2.80;;;;;;;20.87;44.68;94010.22;5066151;28;20391;-75
2022/08/05 02:12:11;;;;;;;2.80;2.58;;;;;;;20.79;44.82;94000.44;5065281;28;20475;-75
2022/08/05 02:14:43;;;;;;;3.55;3.03;;;;;;;20.81;44.78;94009.72;5064748;28;20038;-76
2022/08/05 02:17:30;;;;;;;3.30;3.00;;;;;;;20.47;44.83;93965.03;5068105;28;20248;-75
2022/08/05 02:20:00;;;;;;;4.75;3.17;;;;;;;20.64;44.93;93993.34;5065742;28;20095;-75
2022/08/05 02:22:35;;;;;;;3.67;3.30;;;;;;;20.64;45.03;93999.53;5067293;28;20016;-75
2022/08/05 02:25:24;;;;;;;3.55;3.13;;;;;;;20.71;45.05;94001.53;5066050;28;20362;-76
2022/08/05 02:27:50;;;;;;;3.42;3.13;;;;;;;20.61;44.81;93989.47;5044687;28;20028;-75
2022/08/05 02:30:17;;;;;;;3.00;2.70;;;;;;;20.38;44.92;93953.75;5067511;28;20028;-75
2022/08/05 02:32:48;;;;;;;4.22;3.70;;;;;;;20.72;44.92;94006.56;5067087;28;20048;-75
2022/08/05 02:35:18;;;;;;;3.15;2.85;;;;;;;20.59;44.77;93984.44;5066892;28;20495;-76
2022/08/05 02:37:46;;;;;;;3.67;3.03;;;;;;;20.66;44.90;93997.25;5065605;28;20025;-76
2022/08/05 02:40:13;;;;;;;3.97;3.25;;;;;;;20.70;45.05;94008.06;5063398;28;20044;-76
2022/08/05 02:42:40;;;;;;;3.30;2.83;;;;;;;20.66;44.87;93999.16;5066679;28;20030;-75
2022/08/05 02:45:08;;;;;;;5.07;3.38;;;;;;;20.57;44.91;93981.34;5047417;28;20027;-75
2022/08/05 02:47:35;;;;;;;3.75;2.95;;;;;;;20.62;44.90;93984.84;5065477;28;20020;-75
2022/08/05 02:50:02;;;;;;;4.47;2.78;;;;;;;20.69;44.69;93996.47;5064923;28;20061;-75
2022/08/05 02:52:28;;;;;;;4.15;3.50;;;;;;;20.69;44.99;93995.69;5053404;28;20543;-76
2022/08/05 02:54:55;;;;;;;3.72;3.10;;;;;;;20.60;44.86;93986.00;5069655;28;20109;-76
2022/08/05 02:57:22;;;;;;;3.42;3.10;;;;;;;20.60;45.07;93994.09;5056866;28;20048;-77
2022/08/05 02:59:49;;;;;;;3.97;3.20;;;;;;;20.54;45.20;93990.16;5071750;28;20071;-77
2022/08/05 03:02:21;;;;;;;4.47;2.33;;;;;;;20.45;45.26;93994.31;5071016;28;20506;-76
2022/08/05 03:04:50;;;;;;;3.38;3.08;;;;;;;20.27;45.58;93975.25;5068865;28;20340;-76
2022/08/05 03:07:18;;;;;;;5.78;2.60;;;;;;;20.35;45.30;93998.47;5068715;28;20145;-76
2022/08/05 03:09:44;;;;;;;3.22;2.90;;;;;;;20.17;45.38;93970.50;5066382;28;20479;-77
2022/08/05 03:12:31;;;;;;;3.47;3.17;;;;;;;20.27;45.17;93986.03;5072370;28;20052;-76
2022/08/05 03:14:56;;;;;;;4.90;2.97;;;;;;;20.25;45.32;93987.53;5051167;28;20139;-76
2022/08/05 03:17:22;;;;;;;3.53;2.65;;;;;;;20.27;45.56;94002.25;5053572;28;20123;-76
2022/08/05 03:19:47;;;;;;;3.80;2.78;;;;;;;20.21;45.60;93987.50;5052406;28;20103;-76
2022/08/05 03:22:13;;;;;;;3.63;2.90;;;;;;;20.21;45.48;93990.22;5065328;28;20476;-77
2022/08/05 03:24:40;;;;;;;4.55;3.20;;;;;;;20.29;45.52;93999.94;5067916;28;20051;-77
2022/08/05 03:27:06;;;;;;;2.78;2.42;;;;;;;20.24;45.61;93992.16;5068798;28;20497;-77
2022/08/05 03:29:31;;;;;;;3.30;2.95;;;;;;;20.28;45.63;94000.31;5068121;28;20035;-77
2022/08/05 03:31:57;;;;;;;5.45;2.80;;;;;;;20.06;45.71;93969.56;5069918;28;20090;-76
2022/08/05 03:34:22;;;;;;;9.40;3.50;;;;;;;20.22;45.90;93993.69;5069180;28;20032;-76
2022/08/05 03:36:48;;;;;;;3.90;2.83;;;;;;;20.06;45.79;93981.16;5070276;28;20104;-77
2022/08/05 03:39:13;;;;;;;6.32;3.40;;;;;;;20.05;45.90;93984.22;5069557;28;20447;-77
2022/08/05 03:41:39;;;;;;;2.80;2.60;;;;;;;20.08;45.93;93989.66;5084544;28;20135;-77
2022/08/05 03:44:04;;;;;;;3.28;2.97;;;;;;;19.97;45.93;93971.78;5053173;28;20149;-76
2022/08/05 03:46:29;;;;;;;5.35;2.95;;;;;;;20.00;46.12;93989.94;5068924;28;20384;-76
2022/08/05 03:48:55;;;;;;;2.75;2.55;;;;;;;20.06;46.22;94004.66;5069953;28;20035;-76
2022/08/05 03:51:27;;;;;;;3.70;3.33;;;;;;;20.08;46.42;94005.09;5068212;28;20447;-76
2022/08/05 03:54:12;;;;;;;3.83;3.40;;;;;;;20.05;46.55;93998.50;5050523;28;20195;-76
2022/08/05 03:56:44;;;;;;;3.65;3.35;;;;;;;20.11;46.54;93996.25;5051053;28;20055;-77
2022/08/05 03:59:15;;;;;;;6.60;3.33;;;;;;;20.14;46.81;94000.94;5070163;28;20033;-76
2022/08/05 04:01:44;;;;;;;4.53;3.08;;;;;;;20.18;47.00;94004.47;5038426;28;20576;-76
2022/08/05 04:04:12;;;;;;;4.97;3.22;;;;;;;20.06;47.03;93981.16;5067640;28;20086;-77
2022/08/05 04:06:38;;;;;;;3.80;3.40;;;;;;;20.23;47.59;94006.06;5068328;28;20047;-76
2022/08/05 04:09:05;;;;;;;3.83;3.47;;;;;;;20.27;47.83;93998.78;5067938;28;20534;-76
2022/08/05 04:11:32;;;;;;;5.68;4.13;;;;;;;20.19;47.78;93980.94;5069563;28;20024;-76
2022/08/05 04:13:58;;;;;;;5.57;3.45;;;;;;;20.36;47.77;94004.66;5068073;28;20090;-76
2022/08/05 04:16:24;;;;;;;5.40;4.15;;;;;;;20.34;47.56;94007.72;5066773;28;20017;-76
2022/08/05 04:18:50;;;;;;;4.40;3.60;;;;;;;20.29;47.44;93989.13;5066606;28;20067;-76
2022/08/05 04:21:15;;;;;;;5.82;3.50;;;;;;;20.33;47.53;93981.09;5052485;28;20036;-76
2022/08/05 04:23:42;;;;;;;4.85;4.10;;;;;;;20.52;47.36;93997.09;5068673;28;20035;-76
2022/08/05 04:26:08;;;;;;;5.13;4.40;;;;;;;20.61;46.98;93994.88;5067521;28;20032;-76
2022/08/05 04:28:33;;;;;;;5.18;4.65;;;;;;;20.46;46.15;93972.34;5069075;28;20393;-76
2022/08/05 04:30:59;;;;;;;7.03;4.68;;;;;;;20.69;46.49;93993.78;5069564;28;20035;-76
2022/08/05 04:33:25;;;;;;;8.50;5.18;;;;;;;20.76;46.42;93996.56;5051757;28;20026;-77
2022/08/05 04:35:51;;;;;;;7.47;4.63;;;;;;;20.82;46.18;93986.97;5067822;28;20038;-76
2022/08/05 04:38:16;;;;;;;7.07;4.70;;;;;;;20.93;46.16;93989.75;5067047;28;20031;-76
2022/08/05 04:40:42;;;;;;;6.13;4.90;;;;;;;20.95;46.12;93990.19;5064495;28;20044;-77
2022/08/05 04:43:08;;;;;;;6.75;5.07;;;;;;;20.80;46.54;93974.97;5051215;28;20037;-77
2022/08/05 04:45:34;;;;;;;8.93;5.55;;;;;;;21.01;46.52;93992.16;5068997;28;20027;-76
2022/08/05 04:48:10;;;;;;;9.13;5.05;;;;;;;20.99;46.14;93999.09;5067213;28;20097;-76
2022/08/05 04:50:44;;;;;;;6.75;5.35;;;;;;;21.09;46.01;93995.69;5067841;28;20027;-76
2022/08/05 04:53:11;;;;;;;6.25;4.88;;;;;;;21.12;46.17;93976.00;5063499;28;20556;-77
2022/08/05 04:55:38;;;;;;;8.60;6.05;;;;;;;21.36;45.77;93997.03;5064671;28;20066;-76
2022/08/05 04:58:05;;;;;;;8.38;4.97;;;;;;;21.43;46.17;93994.38;5063587;28;20477;-76
2022/08/05 05:00:35;;;;;;;5.53;4.90;;;;;;;21.47;46.11;93975.47;5066886;28;20024;-77
2022/08/05 05:03:02;;;;;;;5.55;4.82;;;;;;;21.55;45.51;93965.50;5068561;28;20049;-76
2022/08/05 05:05:28;;;;;;;8.75;4.75;;;;;;;21.54;45.43;93974.75;5070840;28;20108;-76
2022/08/05 05:08:02;;;;;;;8.55;5.38;;;;;;;21.64;45.44;93979.47;5050986;28;20024;-77
2022/08/05 05:10:32;;;;;;;8.88;6.28;;;;;;;21.61;45.15;93980.22;5063357;28;20028;-76
2022/08/05 05:12:57;;;;;;;8.30;5.43;;;;;;;21.72;45.34;93989.16;5048610;28;20448;-77
2022/08/05 05:15:26;;;;;;;5.78;4.78;;;;;;;21.46;45.28;93977.38;5054220;28;20127;-76
2022/08/05 05:17:51;;;;;;;6.63;5.50;;;;;;;21.58;45.61;93970.16;5065067;28;20031;-77
2022/08/05 05:20:17;;;;;;;7.55;5.93;;;;;;;21.87;45.42;93993.50;5067406;28;20016;-76
2022/08/05 05:22:42;;;;;;;13.85;7.00;;;;;;;22.01;45.27;93985.44;5063045;28;20036;-76
2022/08/05 05:25:08;;;;;;;6.13;5.53;;;;;;;21.94;45.21;93973.81;5065306;28;20031;-76
2022/08/05 05:27:35;;;;;;;10.23;6.57;;;;;;;22.10;44.89;93985.06;5067586;28;20551;-77
2022/08/05 05:30:01;;;;;;;7.15;6.00;;;;;;;21.98;45.00;93967.25;5066786;28;20290;-77
2022/08/05 05:32:26;;;;;;;7.32;5.78;;;;;;;22.15;45.00;93971.94;5068674;28;20023;-76
2022/08/05 05:34:52;;;;;;;7.18;6.38;;;;;;;22.12;44.91;93978.13;5050481;28;20023;-77
2022/08/05 05:37:17;;;;;;;7.30;5.55;;;;;;;22.04;45.26;93983.91;5066738;28;20060;-77
2022/08/05 05:39:43;;;;;;;9.82;6.18;;;;;;;22.04;45.56;93990.09;5063983;28;20063;-77
2022/08/05 05:42:08;;;;;;;11.63;6.22;;;;;;;22.10;45.22;93985.06;5066048;28;20119;-77
2022/08/05 05:44:34;;;;;;;9.38;6.50;;;;;;;21.93;45.04;93929.69;5063838;28;20028;-76
2022/08/05 05:46:59;;;;;;;8.20;6.03;;;;;;;22.22;44.48;93980.13;5067777;28;20032;-77
2022/08/05 05:49:25;;;;;;;7.70;5.43;;;;;;;22.13;44.89;93984.31;5068292;28;20512;-77
2022/08/05 05:51:51;;;;;;;7.20;5.65;;;;;;;22.28;44.61;93981.31;5065456;28;20594;-77
2022/08/05 05:54:16;;;;;;;11.50;6.35;;;;;;;22.37;44.82;93982.88;5067325;28;20031;-76
2022/08/05 05:56:42;;;;;;;9.32;6.18;;;;;;;22.44;44.67;93991.03;5065564;28;20028;-76
2022/08/05 05:59:07;;;;;;;8.25;6.15;;;;;;;22.49;44.41;93996.81;5065464;28;21066;-76
2022/08/05 06:01:34;;;;;;;8.43;6.10;;;;;;;22.40;44.21;93984.81;5065744;28;20033;-76
2022/08/05 06:04:00;;;;;;;9.43;6.47;;;;;;;22.52;44.23;93984.44;5044763;28;20194;-76
2022/08/05 06:06:26;;;;;;;9.57;6.90;;;;;;;22.73;43.37;93995.34;5064780;28;20127;-76
2022/08/05 06:08:51;;;;;;;7.22;6.28;;;;;;;22.46;43.49;93975.91;5062412;28;20020;-76
2022/08/05 06:11:16;;;;;;;9.63;6.25;;;;;;;22.70;43.12;93993.38;5065279;28;20029;-76
2022/08/05 06:13:42;;;;;;;8.88;6.80;;;;;;;22.74;43.38;93994.16;5065484;28;20020;-76
2022/08/05 06:16:08;;;;;;;9.55;6.10;;;;;;;22.64;43.43;93997.63;5047567;28;20032;-76
2022/08/05 06:18:33;;;;;;;9.68;6.43;;;;;;;22.72;43.24;93991.84;5065802;28;20031;-75
2022/08/05 06:20:59;;;;;;;7.93;5.90;;;;;;;22.85;43.20;93997.66;5062476;28;20403;-76
2022/08/05 06:23:24;;;;;;;6.05;5.18;;;;;;;23.03;43.56;94003.91;5062020;28;20020;-76
2022/08/05 06:25:50;;;;;;;7.65;6.47;;;;;;;21.97;42.84;93864.72;5060643;28;20036;-76
2022/08/05 06:28:15;;;;;;;8.57;5.78;;;;;;;22.76;42.83;94005.41;5047475;28;20573;-75
2022/08/05 06:30:41;;;;;;;8.85;6.78;;;;;;;22.59;43.42;93996.06;5062512;28;20368;-75
2022/08/05 06:33:06;;;;;;;8.73;5.45;;;;;;;22.96;43.39;94001.19;5063352;28;20024;-76
2022/08/05 06:35:32;;;;;;;7.53;5.38;;;;;;;23.09;42.41;93986.06;5066529;28;20023;-75
2022/08/05 06:37:57;;;;;;;6.63;5.43;;;;;;;23.05;43.03;93963.59;5064678;28;21479;-76
2022/08/05 06:40:23;;;;;;;7.40;5.80;;;;;;;23.28;42.28;93987.59;5064907;28;20052;-75
2022/08/05 06:42:49;;;;;;;7.28;6.25;;;;;;;23.19;41.82;93992.66;5082613;28;20016;-75
2022/08/05 06:45:15;;;;;;;7.32;5.32;;;;;;;23.39;42.40;93991.09;5062572;28;20027;-75
2022/08/05 06:47:40;;;;;;;5.32;4.80;;;;;;;23.59;41.58;93994.19;5062053;28;20499;-76
2022/08/05 06:50:06;;;;;;;6.18;5.47;;;;;;;23.69;40.97;93987.97;5066157;28;20023;-75
2022/08/05 06:52:32;;;;;;;23.65;5.07;;;;;;;23.62;40.60;93963.53;5064740;28;20028;-76
2022/08/05 06:54:57;;;;;;;5.38;4.88;;;;;;;23.43;40.69;93980.22;5064091;28;20029;-75
2022/08/05 06:57:22;;;;;;;4.70;4.20;;;;;;;23.35;40.80;93976.75;5064994;28;20028;-76
2022/08/05 06:59:48;;;;;;;5.47;4.85;;;;;;;23.29;40.79;93982.97;5064006;28;20020;-75
2022/08/05 07:02:13;;;;;;;5.65;5.13;;;;;;;23.42;40.33;93993.00;5067003;28;20021;-75
2022/08/05 07:04:39;;;;;;;5.28;4.70;;;;;;;23.49;41.68;93986.84;5070132;28;20025;-75
2022/08/05 07:07:04;;;;;;;6.38;4.60;;;;;;;23.68;40.75;93994.56;5066484;28;20695;-76
2022/08/05 07:09:29;;;;;;;5.13;4.68;;;;;;;23.72;40.73;93972.81;5068956;28;20031;-76
2022/08/05 07:11:55;;;;;;;5.07;4.57;;;;;;;23.71;40.18;93965.84;5065951;28;20071;-76
2022/08/05 07:17:04;;;;;;;5.07;4.53;;;;;;;24.05;40.99;93996.00;5063516;28;20447;-75
2022/08/05 07:19:30;;;;;;;6.63;5.28;;;;;;;24.09;41.40;93983.94;5048147;28;20112;-76
2022/08/05 07:21:56;;;;;;;7.03;5.13;;;;;;;24.29;40.30;93989.72;5053451;28;20024;-76
2022/08/05 07:24:22;;;;;;;6.93;5.10;;;;;;;24.32;39.80;93975.31;5065184;28;20024;-76
2022/08/05 07:26:48;;;;;;;6.22;4.97;;;;;;;24.51;40.41;93991.13;5063197;28;20116;-75
2022/08/05 07:29:14;;;;;;;6.05;5.30;;;;;;;24.56;40.80;93993.44;5063863;28;20029;-75
2022/08/05 07:31:40;;;;;;;6.15;5.00;;;;;;;24.60;40.76;93972.44;5063126;28;20029;-76
2022/08/05 07:34:06;;;;;;;7.22;5.07;;;;;;;24.86;39.54;93995.63;5049738;28;20484;-76
2022/08/05 07:36:32;;;;;;;6.38;5.38;;;;;;;24.77;39.42;93982.47;5066346;28;20153;-75
2022/08/05 07:39:06;;;;;;;6.10;5.38;;;;;;;24.91;40.28;93992.47;5068983;28;20020;-76
2022/08/05 07:41:32;;;;;;;9.63;4.75;;;;;;;24.91;39.90;93986.25;5051813;28;20053;-76
2022/08/05 07:43:58;;;;;;;14.30;6.03;;;;;;;24.32;40.09;93970.66;5041988;28;20039;-76
2022/08/05 07:46:28;;;;;;;11.50;4.63;;;;;;;24.74;40.59;93990.63;5068059;28;20108;-77
2022/08/05 07:48:55;;;;;;;10.05;6.93;;;;;;;24.82;40.14;93984.00;5068649;28;20030;-76
2022/08/05 07:51:20;;;;;;;5.75;5.05;;;;;;;24.97;39.77;93985.44;5066859;28;20032;-77
2022/08/05 07:53:46;;;;;;;5.75;5.00;;;;;;;25.00;39.14;93981.13;5067241;28;20368;-77
2022/08/05 07:56:11;;;;;;;8.88;5.70;;;;;;;24.93;39.74;93984.66;5068436;28;20119;-76
2022/08/05 07:58:36;;;;;;;8.38;5.30;;;;;;;24.91;39.38;93991.69;5068919;28;20028;-76
2022/08/05 08:01:02;;;;;;;8.05;4.97;;;;;;;25.01;39.48;93985.41;5067162;28;20028;-76
2022/08/05 08:03:27;;;;;;;7.03;4.78;;;;;;;24.69;39.20;93970.03;5070451;28;20143;-77
2022/08/05 08:05:53;;;;;;;6.03;5.13;;;;;;;24.88;39.90;93987.06;5065408;28;20431;-77
2022/08/05 08:08:18;;;;;;;5.35;4.32;;;;;;;25.02;40.06;93986.94;5083867;28;20052;-76
2022/08/05 08:10:44;;;;;;;7.30;4.35;;;;;;;24.88;39.89;93966.06;5050540;28;20047;-76
2022/08/05 08:13:10;;;;;;;5.22;4.35;;;;;;;25.11;39.34;93990.75;5067097;28;20357;-76
2022/08/05 08:15:36;;;;;;;6.63;4.85;;;;;;;25.23;38.80;93986.75;5069147;28;20020;-74
2022/08/05 08:18:01;;;;;;;3.80;3.50;;;;;;;25.00;38.38;93973.75;5069244;28;20093;-77
2022/08/05 08:20:27;;;;;;;5.45;4.45;;;;;;;25.01;39.28;93975.28;5068894;28;20020;-76
2022/08/05 08:23:01;;;;;;;5.47;4.10;;;;;;;25.18;39.05;93979.81;5068146;28;20461;-76
2022/08/05 08:25:27;;;;;;;9.20;5.65;;;;;;;25.34;38.97;93983.97;5049979;28;20024;-76
2022/08/05 08:27:54;;;;;;;6.32;4.80;;;;;;;25.43;37.87;93987.78;5066410;28;20081;-77
2022/08/05 08:30:19;;;;;;;5.90;4.05;;;;;;;25.32;37.22;93968.06;5051932;28;20028;-77
2022/08/05 08:32:45;;;;;;;6.03;3.92;;;;;;;25.39;36.98;93973.44;5065491;28;20071;-76
2022/08/05 08:35:10;;;;;;;8.05;3.55;;;;;;;24.82;35.82;93873.25;5068066;28;20035;-76
2022/08/05 08:37:36;;;;;;;5.88;3.38;;;;;;;25.51;35.74;93985.78;5067815;28;20361;-75
2022/08/05 08:40:01;;;;;;;4.40;4.00;;;;;;;25.47;36.21;93974.91;5064198;28;20085;-76
2022/08/05 08:42:27;;;;;;;4.05;3.30;;;;;;;25.31;36.01;93955.63;5067347;28;20037;-76
2022/08/05 08:44:55;;;;;;;3.38;3.08;;;;;;;25.50;36.04;93974.09;5066544;28;20020;-76
2022/08/05 08:47:25;;;;;;;3.83;3.45;;;;;;;25.53;36.44;93973.28;5066919;28;20123;-76
2022/08/05 08:49:56;;;;;;;5.45;3.10;;;;;;;25.42;35.99;93972.63;5049463;28;20144;-76
2022/08/05 08:52:29;;;;;;;3.88;3.47;;;;;;;25.55;36.41;93976.41;5067071;28;20023;-76
2022/08/05 08:54:55;;;;;;;2.72;2.45;;;;;;;25.58;34.88;93975.56;5064944;28;20019;-75
2022/08/05 08:57:22;;;;;;;2.90;2.60;;;;;;;25.73;34.14;93978.16;5038270;28;20035;-76
2022/08/05 08:59:49;;;;;;;3.42;2.95;;;;;;;25.78;34.34;93973.03;5067383;28;20095;-76
2022/08/05 09:02:17;;;;;;;2.63;2.42;;;;;;;25.88;34.47;93976.81;5066005;28;20077;-76
2022/08/05 09:04:43;;;;;;;4.03;3.50;;;;;;;25.68;34.45;93954.84;5068111;28;20096;-76
2022/08/05 09:07:09;;;;;;;4.50;3.13;;;;;;;25.77;33.95;93959.81;5066371;28;20029;-76
2022/08/05 09:09:36;;;;;;;3.25;2.95;;;;;;;25.73;34.27;93968.03;5068876;28;20019;-76
2022/08/05 09:12:04;;;;;;;3.10;2.72;;;;;;;25.74;34.53;93966.06;5039578;28;20028;-76
2022/08/05 09:14:31;;;;;;;3.42;2.97;;;;;;;25.85;33.74;93961.28;5066476;28;20514;-76
2022/08/05 09:16:58;;;;;;;3.35;3.05;;;;;;;25.52;35.29;93947.22;5065278;28;20115;-76
2022/08/05 09:19:24;;;;;;;3.60;3.22;;;;;;;25.46;36.01;93939.94;5067128;28;20036;-76
2022/08/05 09:21:49;;;;;;;3.38;3.08;;;;;;;25.48;35.27;93949.22;5069828;28;20028;-76
2022/08/05 09:24:14;;;;;;;3.25;2.95;;;;;;;25.57;34.81;93925.00;5083347;28;21185;-76
2022/08/05 09:26:40;;;;;;;3.70;2.95;;;;;;;25.77;34.13;93927.91;5067854;28;20419;-76
2022/08/05 09:29:07;;;;;;;2.83;2.50;;;;;;;26.04;33.90;93947.84;5068708;28;20558;-76
2022/08/05 09:31:33;;;;;;;2.40;2.20;;;;;;;26.16;31.68;93943.03;5065539;28;20072;-76
2022/08/05 09:33:59;;;;;;;3.67;2.13;;;;;;;26.12;34.14;93945.81;5066312;28;20341;-76
2022/08/05 09:36:57;;;;;;;2.60;2.30;;;;;;;26.08;31.95;93942.34;5083750;28;20027;-77
2022/08/05 09:39:23;;;;;;;2.50;2.30;;;;;;;26.12;31.93;93924.78;5068638;28;20024;-76
2022/08/05 09:41:55;;;;;;;3.75;2.28;;;;;;;26.27;31.44;93949.91;5050719;28;20025;-76
2022/08/05 09:44:38;;;;;;;2.40;2.20;;;;;;;26.16;32.29;93926.66;5065966;28;20954;-76
2022/08/05 09:47:14;;;;;;;2.60;2.40;;;;;;;26.12;30.73;93918.53;5065516;28;20091;-75
2022/08/05 09:49:45;;;;;;;2.80;2.55;;;;;;;26.19;31.36;93920.41;5064551;28;20559;-76
2022/08/05 09:52:30;;;;;;;2.92;2.58;;;;;;;26.25;31.92;93935.88;5077538;28;20028;-77
2022/08/05 09:54:56;;;;;;;6.35;2.50;;;;;;;26.28;32.18;93929.63;5066774;28;20030;-76
2022/08/05 09:57:42;;;;;;;4.55;2.47;;;;;;;26.03;31.61;93915.56;5067090;28;20902;-76
2022/08/05 10:00:19;;;;;;;3.40;2.67;;;;;;;26.14;32.21;93918.91;5046850;28;20043;-76
2022/08/05 10:02:47;;;;;;;4.95;3.45;;;;;;;26.18;32.58;93902.50;5066429;28;20023;-76
2022/08/05 10:05:17;;;;;;;3.50;2.70;;;;;;;26.03;32.49;93907.38;5068351;28;20103;-76
2022/08/05 10:08:04;;;;;;;2.78;2.45;;;;;;;25.98;32.11;93866.97;5068605;28;20066;-74
2022/08/05 10:10:42;;;;;;;4.20;2.75;;;;;;;26.12;31.65;93885.84;5051127;28;20055;-75
2022/08/05 10:13:07;;;;;;;2.65;2.35;;;;;;;26.45;31.67;93916.91;5064802;28;20499;-76
2022/08/05 10:15:38;;;;;;;5.05;2.53;;;;;;;26.57;31.19;93912.88;5067309;28;20028;-74
2022/08/05 10:18:15;;;;;;;3.88;2.45;;;;;;;26.63;30.31;93917.47;5066153;28;20411;-74
2022/08/05 10:20:42;;;;;;;2.85;2.65;;;;;;;26.69;29.69;93909.59;5047972;28;20488;-75
2022/08/05 10:23:10;;;;;;;2.95;2.65;;;;;;;26.70;30.78;93902.94;5045521;28;20036;-76
2022/08/05 10:25:36;;;;;;;2.42;2.22;;;;;;;26.76;30.49;93901.28;5066995;28;20403;-78
2022/08/05 10:28:01;;;;;;;2.45;2.25;;;;;;;26.75;32.08;93892.34;5064168;28;20016;-74
2022/08/05 10:30:28;;;;;;;2.65;2.42;;;;;;;26.86;30.28;93892.16;5063642;28;20445;-74
2022/08/05 10:32:56;;;;;;;3.05;2.75;;;;;;;27.06;31.81;93898.47;5065445;28;20025;-75
2022/08/05 10:35:21;;;;;;;8.10;3.75;;;;;;;27.04;30.63;93886.44;5066452;28;20081;-77
2022/08/05 10:37:47;;;;;;;2.33;2.10;;;;;;;27.11;33.65;93892.56;5064092;28;20450;-74
2022/08/05 10:40:23;;;;;;;3.03;2.72;;;;;;;27.21;33.05;93902.50;5064438;28;20047;-74
2022/08/05 10:42:52;;;;;;;11.25;3.55;;;;;;;27.15;30.17;93898.72;5063694;28;20055;-74
2022/08/05 10:45:25;;;;;;;3.30;3.00;;;;;;;27.18;30.38;93892.41;5065110;28;20059;-75
2022/08/05 10:47:51;;;;;;;2.60;2.40;;;;;;;27.28;30.05;93890.69;5055836;28;20075;-76
2022/08/05 10:50:17;;;;;;;3.33;2.72;;;;;;;27.37;29.96;93883.47;5065156;28;20016;-74
2022/08/05 10:52:46;;;;;;;4.03;2.85;;;;;;;27.46;28.83;93877.47;5066915;28;20067;-76
2022/08/05 10:55:13;;;;;;;4.75;2.78;;;;;;;27.46;29.07;93876.72;5065755;28;20043;-77
2022/08/05 10:57:44;;;;;;;3.30;3.00;;;;;;;27.49;30.83;93886.78;5066653;28;20081;-75
2022/08/05 11:00:09;;;;;;;3.97;2.92;;;;;;;27.49;28.58;93878.59;5049881;28;20020;-75
2022/08/05 11:02:35;;;;;;;2.33;2.08;;;;;;;27.30;28.77;93847.34;5063660;28;20082;-76
2022/08/05 11:05:08;;;;;;;2.95;2.75;;;;;;;27.55;29.13;93871.47;5064388;28;20435;-76
2022/08/05 11:07:34;;;;;;;3.17;2.88;;;;;;;27.37;33.00;93850.72;5046601;28;20057;-75
2022/08/05 11:10:03;;;;;;;3.15;2.85;;;;;;;27.61;30.23;93869.81;5066022;28;20039;-76
2022/08/05 11:12:44;;;;;;;2.97;2.67;;;;;;;27.52;32.88;93873.06;5068051;28;20063;-76
2022/08/05 11:15:15;;;;;;;2.88;2.67;;;;;;;27.53;35.85;93869.13;5070721;28;20059;-75
2022/08/05 11:17:43;;;;;;;3.75;2.75;;;;;;;27.57;30.20;93861.66;5068783;28;20039;-77
2022/08/05 11:20:45;;;;;;;3.42;2.78;;;;;;;27.80;29.12;93863.56;5068753;28;20034;-75
2022/08/05 11:23:40;;;;;;;3.35;3.05;;;;;;;27.87;30.28;93871.59;5033104;28;20053;-77
2022/08/05 11:26:21;;;;;;;3.70;3.30;;;;;;;27.69;28.98;93860.28;5054278;28;20109;-75
2022/08/05 11:28:48;;;;;;;3.10;2.58;;;;;;;27.79;29.23;93859.28;5067182;28;20844;-75
2022/08/05 11:31:14;;;;;;;3.15;2.80;;;;;;;27.89;28.11;93866.50;5068350;28;20052;-76
2022/08/05 11:33:59;;;;;;;3.57;2.80;;;;;;;27.89;28.27;93852.84;5055976;28;20330;-76
2022/08/05 11:36:45;;;;;;;2.97;2.72;;;;;;;28.05;27.68;93855.63;5049581;28;20275;-76
2022/08/05 11:39:17;;;;;;;4.03;2.58;;;;;;;27.95;28.27;93832.03;5068174;28;20085;-74
2022/08/05 11:41:50;;;;;;;2.95;2.72;;;;;;;28.12;28.20;93855.47;5066013;28;20049;-76